createdAt,value
2022-12-13T11:07:35.252Z,16.83
2022-12-13T11:09:52.509Z,16.23
2022-12-13T11:12:02.524Z,16.67
2022-12-13T11:45:52.823Z,14.47
2022-12-13T11:53:08.540Z,14.80
2022-12-13T11:55:22.236Z,13.23
2022-12-13T11:57:39.333Z,15.43
2022-12-13T11:59:48.517Z,13.87
2022-12-13T12:02:16.728Z,13.00
2022-12-13T12:08:31.581Z,11.37
2022-12-13T12:10:35.633Z,11.93
2022-12-13T12:12:43.555Z,12.77
2022-12-13T12:14:54.013Z,14.90
2022-12-13T12:17:26.802Z,12.83
2022-12-13T12:20:00.969Z,12.80
2022-12-13T12:22:33.717Z,13.00
2022-12-13T12:24:48.256Z,12.80
2022-12-13T12:27:00.105Z,12.80
2022-12-13T12:29:23.776Z,13.60
2022-12-13T12:35:33.787Z,12.97
2022-12-13T12:37:55.604Z,12.67
2022-12-13T12:43:19.408Z,11.83
2022-12-13T12:45:55.911Z,13.13
2022-12-13T12:48:48.975Z,11.70
2022-12-13T12:50:42.944Z,12.27
2022-12-13T12:52:53.905Z,14.03
2022-12-13T12:55:11.716Z,12.67
2022-12-13T12:57:23.968Z,11.90
2022-12-13T12:59:36.240Z,13.17
2022-12-13T13:02:12.991Z,12.50
2022-12-13T13:14:01.330Z,12.20
2022-12-13T13:30:26.263Z,11.57
2022-12-13T13:33:01.584Z,12.03
2022-12-13T13:39:01.321Z,11.77
2022-12-13T13:44:54.385Z,12.10
2022-12-13T14:17:55.279Z,13.73
2022-12-13T14:20:45.399Z,13.07
2022-12-13T14:22:57.187Z,13.43
2022-12-13T14:28:13.507Z,13.87
2022-12-13T14:30:48.275Z,13.37
2022-12-13T14:33:07.194Z,12.60
2022-12-13T14:45:21.419Z,13.43
2022-12-13T14:48:00.727Z,13.60
2022-12-13T14:53:07.703Z,13.43
2022-12-13T15:02:02.757Z,13.97
2022-12-13T15:04:25.327Z,14.27
2022-12-13T15:06:57.267Z,14.70
